Aviation Digital Data Service (ADDS)

Output produced by METARs form (2055 UTC 22 June 2018)
found at http://aviationweather.gov/adds/metars/
 
KOAJ 221752Z 2218/2318 19007KT P6SM SCT050 
     FM222200 20007KT P6SM VCTS BKN040CB 
     FM230300 22009KT P6SM SCT250 AMD LTD TO CLD VIS AND WIND